sensor_id;sensor_type;location;lat;lon;timestamp;temperature;humidity
15596;DHT22;7898;48.658;9.068;2023-04-06T00:00:32;-0.40;99.90
15596;DHT22;7898;48.658;9.068;2023-04-06T00:02:59;-0.50;99.90
15596;DHT22;7898;48.658;9.068;2023-04-06T00:05:27;-0.60;99.90
15596;DHT22;7898;48.658;9.068;2023-04-06T00:07:56;-0.70;99.90
15596;DHT22;7898;48.658;9.068;2023-04-06T00:10:23;-0.70;99.90
15596;DHT22;7898;48.658;9.068;2023-04-06T00:12:50;-0.80;99.90
15596;DHT22;7898;48.658;9.068;2023-04-06T00:15:17;-0.70;99.90
15596;DHT22;7898;48.658;9.068;2023-04-06T00:17:44;-0.70;99.90
15596;DHT22;7898;48.658;9.068;2023-04-06T00:20:11;-0.70;99.90
15596;DHT22;7898;48.658;9.068;2023-04-06T00:22:40;-0.60;99.90
15596;DHT22;7898;48.658;9.068;2023-04-06T00:25:07;-0.50;99.90
15596;DHT22;7898;48.658;9.068;2023-04-06T00:27:35;-0.70;99.90
15596;DHT22;7898;48.658;9.068;2023-04-06T00:30:03;-0.70;99.90
15596;DHT22;7898;48.658;9.068;2023-04-06T00:32:30;-0.70;99.90
15596;DHT22;7898;48.658;9.068;2023-04-06T00:34:57;-0.80;99.90
15596;DHT22;7898;48.658;9.068;2023-04-06T00:37:24;-0.70;99.90
15596;DHT22;7898;48.658;9.068;2023-04-06T00:39:53;-0.70;99.90
15596;DHT22;7898;48.658;9.068;2023-04-06T00:42:21;-0.70;99.90
15596;DHT22;7898;48.658;9.068;2023-04-06T00:44:51;-0.80;99.90
15596;DHT22;7898;48.658;9.068;2023-04-06T00:47:18;-0.80;99.90
15596;DHT22;7898;48.658;9.068;2023-04-06T00:49:45;-0.80;99.90
15596;DHT22;7898;48.658;9.068;2023-04-06T00:52:12;-0.80;99.90
15596;DHT22;7898;48.658;9.068;2023-04-06T00:54:40;-0.80;99.90
15596;DHT22;7898;48.658;9.068;2023-04-06T00:57:08;-0.80;99.90
15596;DHT22;7898;48.658;9.068;2023-04-06T00:59:35;-0.80;99.90
15596;DHT22;7898;48.658;9.068;2023-04-06T01:02:02;-0.80;99.90
15596;DHT22;7898;48.658;9.068;2023-04-06T01:04:29;-0.90;99.90
15596;DHT22;7898;48.658;9.068;2023-04-06T01:06:56;-0.90;99.90
15596;DHT22;7898;48.658;9.068;2023-04-06T01:09:23;-0.90;99.90
15596;DHT22;7898;48.658;9.068;2023-04-06T01:11:50;-0.80;99.90
15596;DHT22;7898;48.658;9.068;2023-04-06T01:14:19;-0.80;99.90
15596;DHT22;7898;48.658;9.068;2023-04-06T01:16:46;-0.90;99.90
15596;DHT22;7898;48.658;9.068;2023-04-06T01:19:13;-0.90;99.90
15596;DHT22;7898;48.658;9.068;2023-04-06T01:21:41;-0.90;99.90
15596;DHT22;7898;48.658;9.068;2023-04-06T01:24:09;-0.90;99.90
15596;DHT22;7898;48.658;9.068;2023-04-06T01:26:37;-0.90;99.90
15596;DHT22;7898;48.658;9.068;2023-04-06T01:29:04;-0.90;99.90
15596;DHT22;7898;48.658;9.068;2023-04-06T01:31:31;-0.90;99.90
15596;DHT22;7898;48.658;9.068;2023-04-06T01:33:58;-0.90;99.90
15596;DHT22;7898;48.658;9.068;2023-04-06T01:36:25;-1.00;99.90
15596;DHT22;7898;48.658;9.068;2023-04-06T01:38:52;-1.00;99.90
15596;DHT22;7898;48.658;9.068;2023-04-06T01:41:21;-0.90;99.90
15596;DHT22;7898;48.658;9.068;2023-04-06T01:43:48;-1.00;99.90
15596;DHT22;7898;48.658;9.068;2023-04-06T01:46:20;-1.00;99.90
15596;DHT22;7898;48.658;9.068;2023-04-06T01:48:46;-1.00;99.90
15596;DHT22;7898;48.658;9.068;2023-04-06T01:51:14;-1.10;99.90
15596;DHT22;7898;48.658;9.068;2023-04-06T01:53:41;-1.10;99.90
15596;DHT22;7898;48.658;9.068;2023-04-06T01:56:08;-1.20;99.90
15596;DHT22;7898;48.658;9.068;2023-04-06T01:58:36;-1.20;99.90
15596;DHT22;7898;48.658;9.068;2023-04-06T02:01:03;-1.20;99.90
15596;DHT22;7898;48.658;9.068;2023-04-06T02:03:30;-1.20;99.90
15596;DHT22;7898;48.658;9.068;2023-04-06T02:05:57;-1.30;99.90
15596;DHT22;7898;48.658;9.068;2023-04-06T02:08:24;-1.30;99.90
15596;DHT22;7898;48.658;9.068;2023-04-06T02:10:51;-1.20;99.90
15596;DHT22;7898;48.658;9.068;2023-04-06T02:13:18;-1.30;99.90
15596;DHT22;7898;48.658;9.068;2023-04-06T02:15:47;-1.40;99.90
15596;DHT22;7898;48.658;9.068;2023-04-06T02:18:14;-1.40;99.90
15596;DHT22;7898;48.658;9.068;2023-04-06T02:20:43;-1.40;99.90
15596;DHT22;7898;48.658;9.068;2023-04-06T02:23:10;-1.50;99.90
15596;DHT22;7898;48.658;9.068;2023-04-06T02:25:37;-1.50;99.90
15596;DHT22;7898;48.658;9.068;2023-04-06T02:28:04;-1.50;99.90
15596;DHT22;7898;48.658;9.068;2023-04-06T02:30:31;-1.60;99.90
15596;DHT22;7898;48.658;9.068;2023-04-06T02:33:00;-1.60;99.90
15596;DHT22;7898;48.658;9.068;2023-04-06T02:35:28;-1.60;99.90
15596;DHT22;7898;48.658;9.068;2023-04-06T02:37:55;-1.50;99.90
15596;DHT22;7898;48.658;9.068;2023-04-06T02:40:22;-1.60;99.90
15596;DHT22;7898;48.658;9.068;2023-04-06T02:42:49;-1.60;99.90
15596;DHT22;7898;48.658;9.068;2023-04-06T02:45:16;-1.60;99.90
15596;DHT22;7898;48.658;9.068;2023-04-06T02:47:43;-1.60;99.90
15596;DHT22;7898;48.658;9.068;2023-04-06T02:50:11;-1.60;99.90
15596;DHT22;7898;48.658;9.068;2023-04-06T02:52:38;-1.70;99.90
15596;DHT22;7898;48.658;9.068;2023-04-06T02:55:06;-1.70;99.90
15596;DHT22;7898;48.658;9.068;2023-04-06T02:57:33;-1.70;99.90
15596;DHT22;7898;48.658;9.068;2023-04-06T03:00:00;-1.70;99.90
15596;DHT22;7898;48.658;9.068;2023-04-06T03:02:27;-1.60;99.90
15596;DHT22;7898;48.658;9.068;2023-04-06T03:04:54;-1.60;99.90
15596;DHT22;7898;48.658;9.068;2023-04-06T03:07:22;-1.50;99.90
15596;DHT22;7898;48.658;9.068;2023-04-06T03:09:49;-1.50;99.90
15596;DHT22;7898;48.658;9.068;2023-04-06T03:12:16;-1.60;99.90
15596;DHT22;7898;48.658;9.068;2023-04-06T03:14:43;-1.60;99.90
15596;DHT22;7898;48.658;9.068;2023-04-06T03:17:10;-1.70;99.90
15596;DHT22;7898;48.658;9.068;2023-04-06T03:19:37;-1.60;99.90
15596;DHT22;7898;48.658;9.068;2023-04-06T03:22:04;-1.80;99.90
15596;DHT22;7898;48.658;9.068;2023-04-06T03:24:32;-1.80;99.90
15596;DHT22;7898;48.658;9.068;2023-04-06T03:26:59;-1.80;99.90
15596;DHT22;7898;48.658;9.068;2023-04-06T03:29:27;-1.80;99.90
15596;DHT22;7898;48.658;9.068;2023-04-06T03:31:53;-1.80;99.90
15596;DHT22;7898;48.658;9.068;2023-04-06T03:34:23;-1.90;99.90
15596;DHT22;7898;48.658;9.068;2023-04-06T03:36:50;-1.80;99.90
15596;DHT22;7898;48.658;9.068;2023-04-06T03:39:17;-1.80;99.90
15596;DHT22;7898;48.658;9.068;2023-04-06T03:41:46;-1.70;99.90
15596;DHT22;7898;48.658;9.068;2023-04-06T03:44:15;-1.80;99.90
15596;DHT22;7898;48.658;9.068;2023-04-06T03:46:43;-1.90;99.90
15596;DHT22;7898;48.658;9.068;2023-04-06T03:49:10;-1.90;99.90
15596;DHT22;7898;48.658;9.068;2023-04-06T03:51:37;-1.90;99.90
15596;DHT22;7898;48.658;9.068;2023-04-06T03:54:04;-2.00;99.90
15596;DHT22;7898;48.658;9.068;2023-04-06T03:56:31;-2.00;99.90
15596;DHT22;7898;48.658;9.068;2023-04-06T03:58:59;-2.10;99.90
15596;DHT22;7898;48.658;9.068;2023-04-06T04:01:27;-2.50;99.90
15596;DHT22;7898;48.658;9.068;2023-04-06T04:03:54;-2.20;99.90
15596;DHT22;7898;48.658;9.068;2023-04-06T04:06:21;-2.20;99.90
15596;DHT22;7898;48.658;9.068;2023-04-06T04:08:48;-2.20;99.90
15596;DHT22;7898;48.658;9.068;2023-04-06T04:11:15;-2.20;99.90
15596;DHT22;7898;48.658;9.068;2023-04-06T04:13:42;-2.20;99.90
15596;DHT22;7898;48.658;9.068;2023-04-06T04:16:11;-2.20;99.90
15596;DHT22;7898;48.658;9.068;2023-04-06T04:18:38;-2.20;99.90
15596;DHT22;7898;48.658;9.068;2023-04-06T04:21:05;-2.10;99.90
15596;DHT22;7898;48.658;9.068;2023-04-06T04:23:32;-2.20;99.90
15596;DHT22;7898;48.658;9.068;2023-04-06T04:25:59;-2.20;99.90
15596;DHT22;7898;48.658;9.068;2023-04-06T04:28:25;-2.20;99.90
15596;DHT22;7898;48.658;9.068;2023-04-06T04:30:52;-2.20;99.90
15596;DHT22;7898;48.658;9.068;2023-04-06T04:33:21;-2.20;99.90
15596;DHT22;7898;48.658;9.068;2023-04-06T04:35:51;-2.10;99.90
15596;DHT22;7898;48.658;9.068;2023-04-06T04:38:18;-2.20;99.90
15596;DHT22;7898;48.658;9.068;2023-04-06T04:40:45;-2.20;99.90
15596;DHT22;7898;48.658;9.068;2023-04-06T04:43:13;-2.20;99.90
15596;DHT22;7898;48.658;9.068;2023-04-06T04:45:40;-2.20;99.90
15596;DHT22;7898;48.658;9.068;2023-04-06T04:48:07;-2.20;99.90
15596;DHT22;7898;48.658;9.068;2023-04-06T04:53:43;-2.30;99.90
15596;DHT22;7898;48.658;9.068;2023-04-06T04:56:10;-2.30;99.90
15596;DHT22;7898;48.658;9.068;2023-04-06T04:58:37;-2.30;99.90
15596;DHT22;7898;48.658;9.068;2023-04-06T05:01:04;-2.30;99.90
15596;DHT22;7898;48.658;9.068;2023-04-06T05:03:32;-2.20;99.90
15596;DHT22;7898;48.658;9.068;2023-04-06T05:05:59;-2.20;99.90
15596;DHT22;7898;48.658;9.068;2023-04-06T05:08:26;-2.20;99.90
15596;DHT22;7898;48.658;9.068;2023-04-06T05:10:55;-2.20;99.90
15596;DHT22;7898;48.658;9.068;2023-04-06T05:13:22;-2.20;99.90
15596;DHT22;7898;48.658;9.068;2023-04-06T05:15:49;-2.10;99.90
15596;DHT22;7898;48.658;9.068;2023-04-06T05:18:16;-2.00;99.90
15596;DHT22;7898;48.658;9.068;2023-04-06T05:20:43;-2.00;99.90
15596;DHT22;7898;48.658;9.068;2023-04-06T05:23:10;-1.90;99.90
15596;DHT22;7898;48.658;9.068;2023-04-06T05:25:37;-1.80;99.90
15596;DHT22;7898;48.658;9.068;2023-04-06T05:28:06;-1.70;99.90
15596;DHT22;7898;48.658;9.068;2023-04-06T05:30:33;-1.50;99.90
15596;DHT22;7898;48.658;9.068;2023-04-06T05:33:01;-1.50;99.90
15596;DHT22;7898;48.658;9.068;2023-04-06T05:35:28;-1.30;99.90
15596;DHT22;7898;48.658;9.068;2023-04-06T05:37:55;-1.50;99.90
15596;DHT22;7898;48.658;9.068;2023-04-06T05:40:22;-1.40;99.90
15596;DHT22;7898;48.658;9.068;2023-04-06T05:42:49;-1.40;99.90
15596;DHT22;7898;48.658;9.068;2023-04-06T05:45:18;-1.30;99.90
15596;DHT22;7898;48.658;9.068;2023-04-06T05:47:46;-1.30;99.90
15596;DHT22;7898;48.658;9.068;2023-04-06T05:50:16;-1.20;99.90
15596;DHT22;7898;48.658;9.068;2023-04-06T05:52:42;-1.10;99.90
15596;DHT22;7898;48.658;9.068;2023-04-06T05:55:12;-1.00;99.90
15596;DHT22;7898;48.658;9.068;2023-04-06T05:57:39;-0.60;99.90
15596;DHT22;7898;48.658;9.068;2023-04-06T06:00:07;0.10;99.90
15596;DHT22;7898;48.658;9.068;2023-04-06T06:02:36;0.70;99.90
15596;DHT22;7898;48.658;9.068;2023-04-06T06:05:05;1.00;99.90
15596;DHT22;7898;48.658;9.068;2023-04-06T06:07:32;0.90;99.90
15596;DHT22;7898;48.658;9.068;2023-04-06T06:09:59;0.80;99.90
15596;DHT22;7898;48.658;9.068;2023-04-06T06:12:26;0.80;99.90
15596;DHT22;7898;48.658;9.068;2023-04-06T06:14:53;0.70;99.90
15596;DHT22;7898;48.658;9.068;2023-04-06T06:17:20;0.60;99.90
15596;DHT22;7898;48.658;9.068;2023-04-06T06:19:49;0.80;99.90
15596;DHT22;7898;48.658;9.068;2023-04-06T06:22:16;0.90;99.90
15596;DHT22;7898;48.658;9.068;2023-04-06T06:24:43;1.00;99.90
15596;DHT22;7898;48.658;9.068;2023-04-06T06:27:10;1.20;99.90
15596;DHT22;7898;48.658;9.068;2023-04-06T06:29:37;1.50;99.90
15596;DHT22;7898;48.658;9.068;2023-04-06T06:32:04;1.70;99.90
15596;DHT22;7898;48.658;9.068;2023-04-06T06:34:31;2.00;99.90
15596;DHT22;7898;48.658;9.068;2023-04-06T06:37:00;2.30;99.90
15596;DHT22;7898;48.658;9.068;2023-04-06T06:39:27;2.80;99.90
15596;DHT22;7898;48.658;9.068;2023-04-06T06:41:54;3.60;99.90
15596;DHT22;7898;48.658;9.068;2023-04-06T06:44:22;4.40;99.90
15596;DHT22;7898;48.658;9.068;2023-04-06T06:46:49;5.20;99.90
15596;DHT22;7898;48.658;9.068;2023-04-06T06:49:16;6.00;99.90
15596;DHT22;7898;48.658;9.068;2023-04-06T06:51:43;6.70;99.90
15596;DHT22;7898;48.658;9.068;2023-04-06T06:54:11;7.30;99.90
15596;DHT22;7898;48.658;9.068;2023-04-06T06:56:38;7.80;99.90
15596;DHT22;7898;48.658;9.068;2023-04-06T06:59:05;8.30;99.90
15596;DHT22;7898;48.658;9.068;2023-04-06T07:01:33;8.50;99.90
15596;DHT22;7898;48.658;9.068;2023-04-06T07:04:00;8.50;99.90
15596;DHT22;7898;48.658;9.068;2023-04-06T07:06:27;8.60;99.90
15596;DHT22;7898;48.658;9.068;2023-04-06T07:08:54;9.10;99.90
15596;DHT22;7898;48.658;9.068;2023-04-06T07:11:22;9.10;99.90
15596;DHT22;7898;48.658;9.068;2023-04-06T07:13:49;9.70;99.90
15596;DHT22;7898;48.658;9.068;2023-04-06T07:16:16;10.20;99.90
15596;DHT22;7898;48.658;9.068;2023-04-06T07:18:43;10.40;99.90
15596;DHT22;7898;48.658;9.068;2023-04-06T07:21:10;10.50;99.90
15596;DHT22;7898;48.658;9.068;2023-04-06T07:23:38;10.50;99.90
15596;DHT22;7898;48.658;9.068;2023-04-06T07:26:05;10.70;99.90
15596;DHT22;7898;48.658;9.068;2023-04-06T07:28:34;10.80;99.90
15596;DHT22;7898;48.658;9.068;2023-04-06T07:31:01;11.10;99.90
15596;DHT22;7898;48.658;9.068;2023-04-06T07:33:28;11.40;99.90
15596;DHT22;7898;48.658;9.068;2023-04-06T07:35:55;11.50;99.90
15596;DHT22;7898;48.658;9.068;2023-04-06T07:38:23;11.80;99.90
15596;DHT22;7898;48.658;9.068;2023-04-06T07:40:50;12.10;99.90
15596;DHT22;7898;48.658;9.068;2023-04-06T07:43:17;12.30;99.90
15596;DHT22;7898;48.658;9.068;2023-04-06T07:45:46;12.60;99.90
15596;DHT22;7898;48.658;9.068;2023-04-06T07:48:13;13.00;99.90
15596;DHT22;7898;48.658;9.068;2023-04-06T07:50:40;13.40;99.90
15596;DHT22;7898;48.658;9.068;2023-04-06T07:53:08;13.70;99.90
15596;DHT22;7898;48.658;9.068;2023-04-06T07:55:36;13.80;99.90
15596;DHT22;7898;48.658;9.068;2023-04-06T07:58:03;14.10;99.90
15596;DHT22;7898;48.658;9.068;2023-04-06T08:00:30;14.30;99.90
15596;DHT22;7898;48.658;9.068;2023-04-06T08:02:58;14.60;99.50
15596;DHT22;7898;48.658;9.068;2023-04-06T08:05:25;15.00;99.00
15596;DHT22;7898;48.658;9.068;2023-04-06T08:07:52;15.20;98.60
15596;DHT22;7898;48.658;9.068;2023-04-06T08:10:19;15.40;96.80
15596;DHT22;7898;48.658;9.068;2023-04-06T08:12:46;15.60;95.80
15596;DHT22;7898;48.658;9.068;2023-04-06T08:15:13;15.60;95.50
15596;DHT22;7898;48.658;9.068;2023-04-06T08:17:40;15.70;96.00
15596;DHT22;7898;48.658;9.068;2023-04-06T08:20:09;15.80;95.20
15596;DHT22;7898;48.658;9.068;2023-04-06T08:22:36;15.90;95.30
15596;DHT22;7898;48.658;9.068;2023-04-06T08:25:04;15.90;94.40
15596;DHT22;7898;48.658;9.068;2023-04-06T08:27:31;16.10;94.00
15596;DHT22;7898;48.658;9.068;2023-04-06T08:29:58;16.30;94.60
15596;DHT22;7898;48.658;9.068;2023-04-06T08:32:25;16.50;94.20
15596;DHT22;7898;48.658;9.068;2023-04-06T08:34:53;16.90;93.70
15596;DHT22;7898;48.658;9.068;2023-04-06T08:37:22;17.10;93.60
15596;DHT22;7898;48.658;9.068;2023-04-06T08:39:49;16.90;92.10
15596;DHT22;7898;48.658;9.068;2023-04-06T08:42:19;16.70;92.40
15596;DHT22;7898;48.658;9.068;2023-04-06T08:44:47;16.70;91.00
15596;DHT22;7898;48.658;9.068;2023-04-06T08:47:16;16.40;91.00
15596;DHT22;7898;48.658;9.068;2023-04-06T08:49:44;15.80;91.40
15596;DHT22;7898;48.658;9.068;2023-04-06T08:52:12;15.70;91.30
15596;DHT22;7898;48.658;9.068;2023-04-06T08:54:41;15.70;91.90
15596;DHT22;7898;48.658;9.068;2023-04-06T08:57:09;15.80;91.90
15596;DHT22;7898;48.658;9.068;2023-04-06T08:59:36;16.00;92.00
15596;DHT22;7898;48.658;9.068;2023-04-06T09:02:04;16.10;91.00
15596;DHT22;7898;48.658;9.068;2023-04-06T09:04:32;16.40;91.20
15596;DHT22;7898;48.658;9.068;2023-04-06T09:07:00;16.50;90.00
15596;DHT22;7898;48.658;9.068;2023-04-06T09:09:27;16.50;90.60
15596;DHT22;7898;48.658;9.068;2023-04-06T09:11:55;16.30;90.90
15596;DHT22;7898;48.658;9.068;2023-04-06T09:14:36;15.70;92.00
15596;DHT22;7898;48.658;9.068;2023-04-06T09:17:04;15.10;91.40
15596;DHT22;7898;48.658;9.068;2023-04-06T09:19:31;15.10;90.70
15596;DHT22;7898;48.658;9.068;2023-04-06T09:22:03;15.40;92.30
15596;DHT22;7898;48.658;9.068;2023-04-06T09:24:40;15.50;89.50
15596;DHT22;7898;48.658;9.068;2023-04-06T09:27:08;15.00;85.50
15596;DHT22;7898;48.658;9.068;2023-04-06T09:29:35;14.60;90.00
15596;DHT22;7898;48.658;9.068;2023-04-06T09:32:04;14.50;86.70
15596;DHT22;7898;48.658;9.068;2023-04-06T09:34:31;14.10;86.20
15596;DHT22;7898;48.658;9.068;2023-04-06T09:36:58;14.20;90.20
15596;DHT22;7898;48.658;9.068;2023-04-06T09:39:25;14.20;85.90
15596;DHT22;7898;48.658;9.068;2023-04-06T09:41:53;14.30;87.90
15596;DHT22;7898;48.658;9.068;2023-04-06T09:44:22;14.10;85.40
15596;DHT22;7898;48.658;9.068;2023-04-06T09:46:53;13.60;88.10
15596;DHT22;7898;48.658;9.068;2023-04-06T09:49:22;13.90;92.40
15596;DHT22;7898;48.658;9.068;2023-04-06T09:51:54;14.40;91.70
15596;DHT22;7898;48.658;9.068;2023-04-06T09:54:23;14.60;89.80
15596;DHT22;7898;48.658;9.068;2023-04-06T09:56:56;15.00;86.30
15596;DHT22;7898;48.658;9.068;2023-04-06T09:59:31;15.30;90.90
15596;DHT22;7898;48.658;9.068;2023-04-06T10:02:05;15.60;90.80
15596;DHT22;7898;48.658;9.068;2023-04-06T10:04:40;15.90;83.80
15596;DHT22;7898;48.658;9.068;2023-04-06T10:07:09;15.80;84.10
15596;DHT22;7898;48.658;9.068;2023-04-06T10:09:38;15.40;82.70
15596;DHT22;7898;48.658;9.068;2023-04-06T10:12:06;14.80;83.40
15596;DHT22;7898;48.658;9.068;2023-04-06T10:14:35;14.70;84.60
15596;DHT22;7898;48.658;9.068;2023-04-06T10:17:03;15.10;87.50
15596;DHT22;7898;48.658;9.068;2023-04-06T10:19:37;15.40;89.40
15596;DHT22;7898;48.658;9.068;2023-04-06T10:22:08;15.30;83.90
15596;DHT22;7898;48.658;9.068;2023-04-06T10:24:37;15.40;88.50
15596;DHT22;7898;48.658;9.068;2023-04-06T10:27:06;15.60;85.00
15596;DHT22;7898;48.658;9.068;2023-04-06T10:29:46;15.70;83.30
15596;DHT22;7898;48.658;9.068;2023-04-06T10:32:14;15.50;82.60
15596;DHT22;7898;48.658;9.068;2023-04-06T10:34:41;15.40;85.30
15596;DHT22;7898;48.658;9.068;2023-04-06T10:37:13;15.40;86.70
15596;DHT22;7898;48.658;9.068;2023-04-06T10:39:46;15.40;83.90
15596;DHT22;7898;48.658;9.068;2023-04-06T10:42:14;15.40;84.50
15596;DHT22;7898;48.658;9.068;2023-04-06T10:44:43;15.50;88.40
15596;DHT22;7898;48.658;9.068;2023-04-06T10:47:17;15.70;87.00
15596;DHT22;7898;48.658;9.068;2023-04-06T10:49:44;15.80;84.50
15596;DHT22;7898;48.658;9.068;2023-04-06T10:52:11;15.60;81.40
15596;DHT22;7898;48.658;9.068;2023-04-06T10:54:42;15.10;85.30
15596;DHT22;7898;48.658;9.068;2023-04-06T10:57:10;15.00;83.00
15596;DHT22;7898;48.658;9.068;2023-04-06T10:59:42;15.00;82.50
15596;DHT22;7898;48.658;9.068;2023-04-06T11:02:09;15.00;81.90
15596;DHT22;7898;48.658;9.068;2023-04-06T11:04:55;15.00;84.80
15596;DHT22;7898;48.658;9.068;2023-04-06T11:07:23;15.20;82.30
15596;DHT22;7898;48.658;9.068;2023-04-06T11:09:51;15.10;80.30
15596;DHT22;7898;48.658;9.068;2023-04-06T11:12:22;15.50;85.50
15596;DHT22;7898;48.658;9.068;2023-04-06T11:14:54;15.90;82.10
15596;DHT22;7898;48.658;9.068;2023-04-06T11:17:26;16.10;84.70
15596;DHT22;7898;48.658;9.068;2023-04-06T11:19:54;16.30;83.80
15596;DHT22;7898;48.658;9.068;2023-04-06T11:22:21;16.20;79.50
15596;DHT22;7898;48.658;9.068;2023-04-06T11:24:48;16.30;81.90
15596;DHT22;7898;48.658;9.068;2023-04-06T11:27:16;16.10;79.20
15596;DHT22;7898;48.658;9.068;2023-04-06T11:29:43;16.00;78.40
15596;DHT22;7898;48.658;9.068;2023-04-06T11:32:11;15.80;79.70
15596;DHT22;7898;48.658;9.068;2023-04-06T11:34:47;15.80;80.70
15596;DHT22;7898;48.658;9.068;2023-04-06T11:37:16;15.80;79.60
15596;DHT22;7898;48.658;9.068;2023-04-06T11:39:47;15.80;80.60
15596;DHT22;7898;48.658;9.068;2023-04-06T11:42:22;15.90;81.20
15596;DHT22;7898;48.658;9.068;2023-04-06T11:44:50;16.00;81.30
15596;DHT22;7898;48.658;9.068;2023-04-06T11:47:19;16.20;80.40
15596;DHT22;7898;48.658;9.068;2023-04-06T11:49:47;16.20;82.00
15596;DHT22;7898;48.658;9.068;2023-04-06T11:52:18;16.00;80.30
15596;DHT22;7898;48.658;9.068;2023-04-06T11:54:46;16.00;79.00
15596;DHT22;7898;48.658;9.068;2023-04-06T11:57:14;16.10;77.10
15596;DHT22;7898;48.658;9.068;2023-04-06T11:59:42;15.90;80.00
15596;DHT22;7898;48.658;9.068;2023-04-06T12:02:09;16.00;82.00
15596;DHT22;7898;48.658;9.068;2023-04-06T12:04:37;16.00;77.60
15596;DHT22;7898;48.658;9.068;2023-04-06T12:07:04;15.80;79.20
15596;DHT22;7898;48.658;9.068;2023-04-06T12:09:33;15.80;78.30
15596;DHT22;7898;48.658;9.068;2023-04-06T12:12:02;15.80;81.80
15596;DHT22;7898;48.658;9.068;2023-04-06T12:14:29;16.00;80.00
15596;DHT22;7898;48.658;9.068;2023-04-06T12:16:56;16.10;78.00
15596;DHT22;7898;48.658;9.068;2023-04-06T12:19:24;15.90;76.10
15596;DHT22;7898;48.658;9.068;2023-04-06T12:21:51;15.60;80.00
15596;DHT22;7898;48.658;9.068;2023-04-06T12:24:19;15.50;78.60
15596;DHT22;7898;48.658;9.068;2023-04-06T12:26:47;15.40;78.70
15596;DHT22;7898;48.658;9.068;2023-04-06T12:29:14;15.20;80.60
15596;DHT22;7898;48.658;9.068;2023-04-06T12:31:41;15.50;79.70
15596;DHT22;7898;48.658;9.068;2023-04-06T12:34:10;15.30;77.90
15596;DHT22;7898;48.658;9.068;2023-04-06T12:36:38;15.30;79.90
15596;DHT22;7898;48.658;9.068;2023-04-06T12:39:05;15.30;79.50
15596;DHT22;7898;48.658;9.068;2023-04-06T12:41:32;15.50;80.10
15596;DHT22;7898;48.658;9.068;2023-04-06T12:44:01;15.50;79.00
15596;DHT22;7898;48.658;9.068;2023-04-06T12:46:29;15.40;78.00
15596;DHT22;7898;48.658;9.068;2023-04-06T12:48:56;15.30;76.90
15596;DHT22;7898;48.658;9.068;2023-04-06T12:51:24;15.50;78.90
15596;DHT22;7898;48.658;9.068;2023-04-06T12:53:52;15.60;75.10
15596;DHT22;7898;48.658;9.068;2023-04-06T12:56:19;15.80;76.20
15596;DHT22;7898;48.658;9.068;2023-04-06T12:58:49;16.10;78.20
15596;DHT22;7898;48.658;9.068;2023-04-06T13:01:18;16.40;77.70
15596;DHT22;7898;48.658;9.068;2023-04-06T13:03:45;16.70;78.40
15596;DHT22;7898;48.658;9.068;2023-04-06T13:06:12;16.80;78.30
15596;DHT22;7898;48.658;9.068;2023-04-06T13:08:41;17.10;75.80
15596;DHT22;7898;48.658;9.068;2023-04-06T13:11:08;17.40;75.00
15596;DHT22;7898;48.658;9.068;2023-04-06T13:13:35;17.30;74.20
15596;DHT22;7898;48.658;9.068;2023-04-06T13:16:04;17.10;73.90
15596;DHT22;7898;48.658;9.068;2023-04-06T13:18:33;17.10;74.20
15596;DHT22;7898;48.658;9.068;2023-04-06T13:21:01;17.10;75.50
15596;DHT22;7898;48.658;9.068;2023-04-06T13:23:28;17.40;78.00
15596;DHT22;7898;48.658;9.068;2023-04-06T13:25:59;17.40;75.50
15596;DHT22;7898;48.658;9.068;2023-04-06T13:28:27;17.30;72.40
15596;DHT22;7898;48.658;9.068;2023-04-06T13:30:54;16.90;72.70
15596;DHT22;7898;48.658;9.068;2023-04-06T13:33:22;16.70;73.10
15596;DHT22;7898;48.658;9.068;2023-04-06T13:35:50;16.60;74.20
15596;DHT22;7898;48.658;9.068;2023-04-06T13:38:17;16.40;73.60
15596;DHT22;7898;48.658;9.068;2023-04-06T13:40:44;16.20;73.40
15596;DHT22;7898;48.658;9.068;2023-04-06T13:43:11;16.00;74.90
15596;DHT22;7898;48.658;9.068;2023-04-06T13:45:39;15.70;74.80
15596;DHT22;7898;48.658;9.068;2023-04-06T13:48:06;15.90;77.00
15596;DHT22;7898;48.658;9.068;2023-04-06T13:50:33;16.30;74.20
15596;DHT22;7898;48.658;9.068;2023-04-06T13:53:02;16.20;74.00
15596;DHT22;7898;48.658;9.068;2023-04-06T13:55:28;16.50;76.30
15596;DHT22;7898;48.658;9.068;2023-04-06T13:57:56;16.60;76.10
15596;DHT22;7898;48.658;9.068;2023-04-06T14:00:24;16.70;75.00
15596;DHT22;7898;48.658;9.068;2023-04-06T14:02:53;16.60;73.20
15596;DHT22;7898;48.658;9.068;2023-04-06T14:05:20;16.70;73.80
15596;DHT22;7898;48.658;9.068;2023-04-06T14:07:47;17.10;73.00
15596;DHT22;7898;48.658;9.068;2023-04-06T14:10:15;17.20;74.00
15596;DHT22;7898;48.658;9.068;2023-04-06T14:12:43;17.40;73.40
15596;DHT22;7898;48.658;9.068;2023-04-06T14:15:11;17.70;73.80
15596;DHT22;7898;48.658;9.068;2023-04-06T14:17:38;17.70;72.20
15596;DHT22;7898;48.658;9.068;2023-04-06T14:20:06;17.70;72.80
15596;DHT22;7898;48.658;9.068;2023-04-06T14:22:33;18.50;74.30
15596;DHT22;7898;48.658;9.068;2023-04-06T14:25:00;18.80;72.60
15596;DHT22;7898;48.658;9.068;2023-04-06T14:27:30;18.60;72.30
15596;DHT22;7898;48.658;9.068;2023-04-06T14:29:57;18.80;72.40
15596;DHT22;7898;48.658;9.068;2023-04-06T14:32:24;18.50;72.40
15596;DHT22;7898;48.658;9.068;2023-04-06T14:34:52;18.40;72.30
15596;DHT22;7898;48.658;9.068;2023-04-06T14:37:19;18.60;73.00
15596;DHT22;7898;48.658;9.068;2023-04-06T14:39:46;18.80;72.00
15596;DHT22;7898;48.658;9.068;2023-04-06T14:42:13;18.80;73.30
15596;DHT22;7898;48.658;9.068;2023-04-06T14:44:41;18.60;75.00
15596;DHT22;7898;48.658;9.068;2023-04-06T14:47:10;18.50;74.90
15596;DHT22;7898;48.658;9.068;2023-04-06T14:49:41;17.90;73.90
15596;DHT22;7898;48.658;9.068;2023-04-06T14:52:07;17.30;76.50
15596;DHT22;7898;48.658;9.068;2023-04-06T14:54:35;17.10;78.80
15596;DHT22;7898;48.658;9.068;2023-04-06T14:57:02;16.90;77.80
15596;DHT22;7898;48.658;9.068;2023-04-06T14:59:29;16.90;77.80
15596;DHT22;7898;48.658;9.068;2023-04-06T15:02:00;16.70;80.10
15596;DHT22;7898;48.658;9.068;2023-04-06T15:04:28;16.40;81.40
15596;DHT22;7898;48.658;9.068;2023-04-06T15:06:55;16.20;77.00
15596;DHT22;7898;48.658;9.068;2023-04-06T15:09:22;16.00;77.90
15596;DHT22;7898;48.658;9.068;2023-04-06T15:11:49;16.10;81.10
15596;DHT22;7898;48.658;9.068;2023-04-06T15:14:15;15.60;81.90
15596;DHT22;7898;48.658;9.068;2023-04-06T15:16:42;15.40;80.30
15596;DHT22;7898;48.658;9.068;2023-04-06T15:19:11;15.10;80.70
15596;DHT22;7898;48.658;9.068;2023-04-06T15:21:37;14.70;80.80
15596;DHT22;7898;48.658;9.068;2023-04-06T15:24:05;14.40;82.40
15596;DHT22;7898;48.658;9.068;2023-04-06T15:26:34;14.20;82.70
15596;DHT22;7898;48.658;9.068;2023-04-06T15:29:01;13.90;82.50
15596;DHT22;7898;48.658;9.068;2023-04-06T15:31:29;13.70;84.40
15596;DHT22;7898;48.658;9.068;2023-04-06T15:33:56;13.50;83.70
15596;DHT22;7898;48.658;9.068;2023-04-06T15:36:26;13.40;84.50
15596;DHT22;7898;48.658;9.068;2023-04-06T15:38:54;13.50;85.70
15596;DHT22;7898;48.658;9.068;2023-04-06T15:41:21;13.50;84.10
15596;DHT22;7898;48.658;9.068;2023-04-06T15:43:48;13.50;84.80
15596;DHT22;7898;48.658;9.068;2023-04-06T15:46:15;13.40;85.90
15596;DHT22;7898;48.658;9.068;2023-04-06T15:48:43;13.40;85.80
15596;DHT22;7898;48.658;9.068;2023-04-06T15:51:10;13.40;86.70
15596;DHT22;7898;48.658;9.068;2023-04-06T15:53:38;13.40;87.20